Time;durP1;ratioP1;P1;durP2;ratioP2;P2;SDS_P1;SDS_P2;PMS_P1;PMS_P2;Temp;Humidity;BMP_temperature;BMP_pressure;BME280_temperature;BME280_humidity;BME280_pressure;Samples;Min_cycle;Max_cycle;Signal;HPM_P1;HPM_P2
2022/04/07 00:00:54;;;;;;;13.47;2.97;;;9.70;99.90;;;;;;5119736;27;20046;-78
2022/04/07 00:03:19;;;;;;;18.03;3.57;;;9.70;99.90;;;;;;5155000;27;20276;-79
2022/04/07 00:05:45;;;;;;;11.43;3.17;;;9.60;99.90;;;;;;5136479;27;20493;-79
2022/04/07 00:08:11;;;;;;;12.67;3.27;;;9.70;99.90;;;;;;5154547;27;20175;-79
2022/04/07 00:10:37;;;;;;;10.20;2.63;;;9.70;99.90;;;;;;5154617;27;20046;-80
2022/04/07 00:13:03;;;;;;;8.70;2.20;;;9.60;99.90;;;;;;5136530;27;20295;-79
2022/04/07 00:15:30;;;;;;;12.03;2.47;;;9.60;99.90;;;;;;5136301;27;20054;-80
2022/04/07 00:17:57;;;;;;;16.63;3.17;;;9.60;99.90;;;;;;5154489;27;20771;-79
2022/04/07 00:20:24;;;;;;;15.43;3.07;;;9.60;99.90;;;;;;5154803;27;20290;-79
2022/04/07 00:22:50;;;;;;;14.70;3.00;;;9.60;99.90;;;;;;5154357;27;20704;-79
2022/04/07 00:25:16;;;;;;;18.50;3.40;;;9.60;99.90;;;;;;5154198;27;20345;-79
2022/04/07 00:27:42;;;;;;;21.80;3.83;;;9.60;99.90;;;;;;5136198;27;20350;-79
2022/04/07 00:30:13;;;;;;;19.27;4.03;;;9.60;99.90;;;;;;5136334;27;20643;-79
2022/04/07 00:32:42;;;;;;;21.43;4.50;;;9.60;99.90;;;;;;5154087;27;20276;-80
2022/04/07 00:35:09;;;;;;;18.77;4.00;;;9.60;99.90;;;;;;5136583;27;20620;-79
2022/04/07 00:37:35;;;;;;;17.90;3.37;;;9.70;99.90;;;;;;5136130;27;20288;-80
2022/04/07 00:40:01;;;;;;;20.57;4.23;;;9.60;99.90;;;;;;5136289;27;20786;-79
2022/04/07 00:42:26;;;;;;;17.97;3.90;;;9.60;99.90;;;;;;5154328;27;20091;-79
2022/04/07 00:44:52;;;;;;;18.13;4.23;;;9.60;99.90;;;;;;5138612;27;20069;-79
2022/04/07 00:47:19;;;;;;;19.43;4.50;;;9.60;99.90;;;;;;5158872;27;20043;-79
2022/04/07 00:49:45;;;;;;;25.60;5.00;;;9.60;99.90;;;;;;5140153;27;20050;-79
2022/04/07 00:52:12;;;;;;;20.63;4.83;;;9.60;99.90;;;;;;5140327;27;20803;-79
2022/04/07 00:54:38;;;;;;;24.73;4.47;;;9.70;99.90;;;;;;5139870;27;20070;-80
2022/04/07 00:57:06;;;;;;;18.17;3.77;;;9.60;99.90;;;;;;5158531;27;20284;-79
2022/04/07 00:59:34;;;;;;;24.40;4.37;;;9.70;99.90;;;;;;5158491;27;20280;-79
2022/04/07 01:02:00;;;;;;;22.23;4.60;;;9.70;99.90;;;;;;5158323;27;20295;-80
2022/04/07 01:04:25;;;;;;;18.40;3.87;;;9.70;99.90;;;;;;5158146;27;20279;-80
2022/04/07 01:06:52;;;;;;;18.33;3.87;;;9.70;99.90;;;;;;5157978;27;20129;-79
2022/04/07 01:09:19;;;;;;;22.50;4.90;;;9.60;99.90;;;;;;5158448;27;20117;-79
2022/04/07 01:11:45;;;;;;;28.10;4.87;;;9.60;99.90;;;;;;5157845;27;20364;-78
2022/04/07 01:14:11;;;;;;;26.40;4.57;;;9.60;99.90;;;;;;5158183;27;20276;-78
2022/04/07 01:16:37;;;;;;;25.53;4.30;;;9.60;99.90;;;;;;5157749;27;20609;-78
2022/04/07 01:19:03;;;;;;;22.10;4.27;;;9.50;99.90;;;;;;5158386;27;20291;-78
2022/04/07 01:21:32;;;;;;;22.13;3.97;;;9.50;99.90;;;;;;5157856;27;20042;-78
2022/04/07 01:24:05;;;;;;;26.17;5.17;;;9.50;99.90;;;;;;5121431;27;20288;-77
2022/04/07 01:26:39;;;;;;;28.03;5.03;;;9.50;99.90;;;;;;5158062;27;20636;-77
2022/04/07 01:29:14;;;;;;;24.83;4.73;;;9.50;99.90;;;;;;5158038;27;20328;-77
2022/04/07 01:31:41;;;;;;;30.60;5.45;;;9.50;99.90;;;;;;5157592;27;20276;-78
2022/04/07 01:34:12;;;;;;;27.47;5.07;;;9.50;99.90;;;;;;5157752;27;20047;-77
2022/04/07 01:36:41;;;;;;;20.23;4.73;;;9.60;99.90;;;;;;5157654;27;20311;-78
2022/04/07 01:39:09;;;;;;;24.97;4.67;;;9.50;99.90;;;;;;5157809;27;20681;-78
2022/04/07 01:41:40;;;;;;;25.63;4.33;;;9.50;99.90;;;;;;5157582;27;20292;-78
2022/04/07 01:44:07;;;;;;;23.87;4.80;;;9.50;99.90;;;;;;5139741;27;20283;-78
2022/04/07 01:46:34;;;;;;;28.83;4.53;;;9.50;99.90;;;;;;5157550;27;20282;-78
2022/04/07 01:49:01;;;;;;;27.83;5.60;;;9.50;99.90;;;;;;5157186;27;20726;-78
2022/04/07 01:51:28;;;;;;;26.73;5.40;;;9.50;99.90;;;;;;5138863;27;20288;-78
2022/04/07 01:53:55;;;;;;;27.70;5.50;;;9.50;99.90;;;;;;5138778;27;20285;-78
2022/04/07 01:56:22;;;;;;;31.97;5.43;;;9.50;99.90;;;;;;5156708;27;20280;-78
2022/04/07 01:58:48;;;;;;;26.80;5.33;;;9.50;99.90;;;;;;5156767;27;20860;-78
2022/04/07 02:01:15;;;;;;;23.80;5.33;;;9.50;99.90;;;;;;5157175;27;20299;-78
2022/04/07 02:03:41;;;;;;;30.40;5.23;;;9.50;99.90;;;;;;5156849;27;20272;-80
2022/04/07 02:06:15;;;;;;;31.93;7.13;;;9.50;99.90;;;;;;5157068;27;20288;-78
2022/04/07 02:08:42;;;;;;;29.63;5.80;;;9.50;99.90;;;;;;5156965;27;20047;-82
2022/04/07 02:11:08;;;;;;;19.10;4.23;;;9.50;99.90;;;;;;5157436;27;20295;-78
2022/04/07 02:13:34;;;;;;;30.87;4.83;;;9.50;99.90;;;;;;5121620;27;20288;-78
2022/04/07 02:16:01;;;;;;;30.97;6.63;;;9.50;99.90;;;;;;5156708;27;20276;-78
2022/04/07 02:18:27;;;;;;;31.53;6.03;;;9.50;99.90;;;;;;5138678;27;20620;-78
2022/04/07 02:20:53;;;;;;;37.73;6.40;;;9.50;99.90;;;;;;5156481;27;20367;-79
2022/04/07 02:23:19;;;;;;;27.57;4.97;;;9.50;99.90;;;;;;5156922;27;20366;-78
2022/04/07 02:25:44;;;;;;;29.17;5.50;;;9.50;99.90;;;;;;5137841;27;20105;-78
2022/04/07 02:28:10;;;;;;;27.73;5.53;;;9.50;99.90;;;;;;5156390;27;20043;-78
2022/04/07 02:30:36;;;;;;;24.53;4.50;;;9.50;99.90;;;;;;5156632;27;20045;-78
2022/04/07 02:33:01;;;;;;;23.27;5.10;;;9.50;99.90;;;;;;5138077;27;20049;-79
2022/04/07 02:35:27;;;;;;;22.03;4.50;;;9.50;99.90;;;;;;5138312;27;20389;-78
2022/04/07 02:37:53;;;;;;;23.97;4.40;;;9.50;99.90;;;;;;5137754;27;20050;-80
2022/04/07 02:40:18;;;;;;;22.77;4.10;;;9.50;99.90;;;;;;5138180;27;20129;-79
2022/04/07 02:42:44;;;;;;;22.63;4.10;;;9.50;99.90;;;;;;5137353;27;20038;-86
2022/04/07 02:45:10;;;;;;;22.40;4.40;;;9.50;99.90;;;;;;5120776;27;20042;-80
2022/04/07 02:47:39;;;;;;;22.20;4.17;;;9.50;99.90;;;;;;5137887;27;20039;-80
2022/04/07 02:50:06;;;;;;;23.20;4.00;;;9.50;99.90;;;;;;5156011;27;20078;-80
2022/04/07 02:52:32;;;;;;;23.60;4.07;;;9.50;99.90;;;;;;5156322;27;20685;-80
2022/04/07 02:54:58;;;;;;;22.40;4.43;;;9.50;99.90;;;;;;5137546;27;20319;-80
2022/04/07 02:57:25;;;;;;;27.67;3.57;;;9.50;99.90;;;;;;5137732;27;20292;-80
2022/04/07 02:59:51;;;;;;;21.47;3.97;;;9.50;99.90;;;;;;5155802;27;20284;-80
2022/04/07 03:02:17;;;;;;;24.30;4.37;;;9.50;99.90;;;;;;5156089;27;20379;-80
2022/04/07 03:04:43;;;;;;;22.40;4.63;;;9.50;99.90;;;;;;5137744;27;20688;-80
2022/04/07 03:07:09;;;;;;;26.87;4.70;;;9.50;99.90;;;;;;5154934;27;20042;-80
2022/04/07 03:09:34;;;;;;;20.57;4.07;;;9.60;99.90;;;;;;5155610;27;20061;-80
2022/04/07 03:12:00;;;;;;;24.67;5.10;;;9.60;99.90;;;;;;5137224;27;20046;-80
2022/04/07 03:14:28;;;;;;;21.00;5.03;;;9.60;99.90;;;;;;5155868;27;20077;-80
2022/04/07 03:16:54;;;;;;;23.57;4.33;;;9.60;99.90;;;;;;5155394;27;20056;-80
2022/04/07 03:19:20;;;;;;;26.63;4.87;;;9.60;99.90;;;;;;5155631;27;20280;-80
2022/04/07 03:21:46;;;;;;;23.03;4.47;;;9.60;99.90;;;;;;5103116;27;20332;-80
2022/04/07 03:24:12;;;;;;;28.70;5.17;;;9.60;99.90;;;;;;5116103;27;20066;-80
2022/04/07 03:26:39;;;;;;;20.67;4.30;;;9.60;99.90;;;;;;5135064;27;20273;-80
2022/04/07 03:29:05;;;;;;;21.27;4.90;;;9.60;99.90;;;;;;5133617;27;20777;-80
2022/04/07 03:31:31;;;;;;;27.43;5.50;;;9.60;99.90;;;;;;5135004;27;20268;-80
2022/04/07 03:33:57;;;;;;;29.90;5.90;;;9.60;99.90;;;;;;5133398;27;20291;-80
2022/04/07 03:36:22;;;;;;;21.30;5.17;;;9.60;99.90;;;;;;5134650;27;20047;-80
2022/04/07 03:38:51;;;;;;;31.70;6.70;;;9.60;99.90;;;;;;5133697;27;20050;-80
2022/04/07 03:41:17;;;;;;;26.60;5.10;;;9.60;99.90;;;;;;5133540;27;20479;-80
2022/04/07 03:43:43;;;;;;;19.40;4.70;;;9.60;99.90;;;;;;5134577;27;20296;-79
2022/04/07 03:46:10;;;;;;;22.10;4.73;;;9.70;99.90;;;;;;5133335;27;20289;-79
2022/04/07 03:48:36;;;;;;;24.97;4.87;;;9.70;99.90;;;;;;5133636;27;20288;-79
2022/04/07 03:51:02;;;;;;;26.77;5.93;;;9.70;99.90;;;;;;5133288;27;20756;-79
2022/04/07 03:53:29;;;;;;;28.17;5.27;;;9.70;99.90;;;;;;5134557;27;20043;-80
2022/04/07 03:55:54;;;;;;;32.83;5.43;;;9.60;99.90;;;;;;5133174;27;20296;-79
2022/04/07 03:58:20;;;;;;;30.53;5.67;;;9.70;99.90;;;;;;5134098;27;20281;-79
2022/04/07 04:00:46;;;;;;;32.37;5.90;;;9.70;99.90;;;;;;5134089;27;20070;-79
2022/04/07 04:03:13;;;;;;;35.07;5.77;;;9.70;99.90;;;;;;5115590;27;20293;-79
2022/04/07 04:05:39;;;;;;;36.17;6.87;;;9.60;99.90;;;;;;5134132;27;20043;-79
2022/04/07 04:08:05;;;;;;;38.20;6.90;;;9.60;99.90;;;;;;5133910;27;20281;-79
2022/04/07 04:10:30;;;;;;;35.87;6.27;;;9.50;99.90;;;;;;5134286;27;20409;-78
2022/04/07 04:12:56;;;;;;;28.30;6.03;;;9.50;99.90;;;;;;5132925;27;20288;-79
2022/04/07 04:15:22;;;;;;;30.93;6.93;;;9.50;99.90;;;;;;5134215;27;20463;-79
2022/04/07 04:17:48;;;;;;;33.87;6.77;;;9.50;99.90;;;;;;5134186;27;20047;-78
2022/04/07 04:20:14;;;;;;;30.23;6.93;;;9.40;99.90;;;;;;5133505;27;21134;-78
2022/04/07 04:22:40;;;;;;;38.70;7.57;;;9.40;99.90;;;;;;5133969;27;20050;-77
2022/04/07 04:25:08;;;;;;;47.03;8.73;;;9.40;99.90;;;;;;5145701;27;20088;-78
2022/04/07 04:27:34;;;;;;;31.43;7.10;;;9.40;99.90;;;;;;5154803;27;20082;-77
2022/04/07 04:30:00;;;;;;;38.87;7.40;;;9.40;99.90;;;;;;5154408;27;20280;-78
2022/04/07 04:32:25;;;;;;;40.33;7.30;;;9.40;99.90;;;;;;5154494;27;20284;-76
2022/04/07 04:34:51;;;;;;;40.07;7.77;;;9.30;99.90;;;;;;5136323;27;20466;-76
2022/04/07 04:37:17;;;;;;;38.43;7.63;;;9.30;99.90;;;;;;5154230;27;20103;-76
2022/04/07 04:39:43;;;;;;;36.33;7.43;;;9.30;99.90;;;;;;5154752;27;20053;-76
2022/04/07 04:42:09;;;;;;;38.03;6.53;;;9.30;99.90;;;;;;5154173;27;20043;-76
2022/04/07 04:44:35;;;;;;;36.87;7.07;;;9.20;99.90;;;;;;5154537;27;20762;-76
2022/04/07 04:47:00;;;;;;;46.10;8.13;;;9.20;99.90;;;;;;5153950;27;20039;-76
2022/04/07 04:49:26;;;;;;;38.30;7.13;;;9.30;99.90;;;;;;5154441;27;20062;-75
2022/04/07 04:51:52;;;;;;;33.93;6.40;;;9.20;99.90;;;;;;5136302;27;20051;-75
2022/04/07 04:54:18;;;;;;;36.67;6.83;;;9.20;99.90;;;;;;5154092;27;20340;-75
2022/04/07 04:56:44;;;;;;;37.20;6.20;;;9.20;99.90;;;;;;5154566;27;20057;-75
2022/04/07 04:59:09;;;;;;;29.37;5.80;;;9.20;99.90;;;;;;5154042;27;20474;-76
2022/04/07 05:01:35;;;;;;;26.77;5.27;;;9.20;99.90;;;;;;5135812;27;20042;-76
2022/04/07 05:04:01;;;;;;;23.80;5.27;;;9.10;99.90;;;;;;5154368;27;20047;-75
2022/04/07 05:06:26;;;;;;;11.37;2.40;;;9.20;99.90;;;;;;5154315;27;20470;-74
2022/04/07 05:08:52;;;;;;;14.33;2.80;;;9.10;99.90;;;;;;5154487;27;20134;-74
2022/04/07 05:11:18;;;;;;;15.90;3.03;;;8.80;99.90;;;;;;5154048;27;20408;-73
2022/04/07 05:13:44;;;;;;;10.70;2.33;;;8.60;99.90;;;;;;5154225;27;20042;-73
2022/04/07 05:16:15;;;;;;;11.13;2.17;;;8.50;99.90;;;;;;5153888;27;20085;-73
2022/04/07 05:18:46;;;;;;;17.30;3.17;;;8.30;99.90;;;;;;5154578;27;20100;-73
2022/04/07 05:21:15;;;;;;;18.23;3.53;;;8.20;99.90;;;;;;5154011;27;20296;-74
2022/04/07 05:23:41;;;;;;;8.33;2.40;;;8.10;99.90;;;;;;5154004;27;20315;-73
2022/04/07 05:26:07;;;;;;;13.33;2.60;;;8.10;99.90;;;;;;5135395;27;20303;-74
2022/04/07 05:28:33;;;;;;;7.13;1.70;;;8.00;99.90;;;;;;5154063;27;20288;-73
2022/04/07 05:30:58;;;;;;;8.57;1.77;;;7.90;99.90;;;;;;5155024;27;20035;-73
2022/04/07 05:33:25;;;;;;;10.67;2.53;;;;;;;;;;5157601;27;20042;-73
2022/04/07 05:35:51;;;;;;;10.20;1.80;;;7.60;99.90;;;;;;5157853;27;20485;-73
2022/04/07 05:38:17;;;;;;;9.83;1.80;;;7.70;99.90;;;;;;5157433;27;20752;-74
2022/04/07 05:40:43;;;;;;;12.10;2.03;;;7.60;99.90;;;;;;5157996;27;20283;-73
2022/04/07 05:43:09;;;;;;;9.70;1.80;;;7.50;99.90;;;;;;5157274;27;20038;-74
2022/04/07 05:45:34;;;;;;;10.20;1.70;;;7.60;99.90;;;;;;5157913;27;20283;-74
2022/04/07 05:48:00;;;;;;;9.10;1.80;;;7.60;99.90;;;;;;5157272;27;20039;-73
2022/04/07 05:50:26;;;;;;;7.97;1.90;;;7.40;99.90;;;;;;5157327;27;20051;-73
2022/04/07 05:52:52;;;;;;;13.33;2.40;;;7.40;99.90;;;;;;5157733;27;20483;-72
2022/04/07 05:55:18;;;;;;;11.43;2.53;;;7.30;99.90;;;;;;5156801;27;20125;-73
2022/04/07 05:57:44;;;;;;;10.57;1.90;;;7.30;99.90;;;;;;5139143;27;20082;-73
2022/04/07 06:00:12;;;;;;;10.20;2.00;;;7.30;99.90;;;;;;5138777;27;20125;-73
2022/04/07 06:02:38;;;;;;;5.03;1.07;;;7.20;99.90;;;;;;5138773;27;20852;-73
2022/04/07 06:05:09;;;;;;;6.53;1.40;;;7.20;99.90;;;;;;5138981;27;20808;-74
2022/04/07 06:07:35;;;;;;;9.03;1.80;;;7.20;99.90;;;;;;5157303;27;20271;-74
2022/04/07 06:10:02;;;;;;;7.23;1.73;;;7.10;99.90;;;;;;5138600;27;20288;-74
2022/04/07 06:12:27;;;;;;;8.68;1.92;;;7.10;99.90;;;;;;5156846;27;20284;-73
2022/04/07 06:14:53;;;;;;;6.33;1.30;;;;;;;;;;5138732;27;20042;-73
2022/04/07 06:17:19;;;;;;;9.97;1.57;;;;;;;;;;5138540;27;20471;-74
2022/04/07 06:19:46;;;;;;;11.13;1.57;;;;;;;;;;5157065;27;20287;-74
2022/04/07 06:22:12;;;;;;;6.00;1.17;;;;;;;;;;5156625;27;20311;-74
2022/04/07 06:24:38;;;;;;;6.43;1.90;;;;;;;;;;5156656;27;20372;-74
2022/04/07 06:27:04;;;;;;;9.23;1.70;;;7.30;99.90;;;;;;5156866;27;20316;-74
2022/04/07 06:29:31;;;;;;;7.43;1.40;;;;;;;;;;5138316;27;20605;-74
2022/04/07 06:31:56;;;;;;;9.33;2.20;;;7.20;99.90;;;;;;5156954;27;20276;-74
2022/04/07 06:34:22;;;;;;;7.87;1.43;;;7.20;99.90;;;;;;5156385;27;20647;-74
2022/04/07 06:36:48;;;;;;;8.07;1.83;;;7.20;99.90;;;;;;5156669;27;20046;-74
2022/04/07 06:39:14;;;;;;;8.50;1.50;;;7.20;99.90;;;;;;5137940;27;20050;-75
2022/04/07 06:41:39;;;;;;;7.27;1.67;;;7.20;99.90;;;;;;5155950;27;20039;-74
2022/04/07 06:44:05;;;;;;;9.00;1.60;;;7.20;99.90;;;;;;5156538;27;20051;-74
2022/04/07 06:46:32;;;;;;;6.60;1.70;;;7.30;99.90;;;;;;5156269;27;20046;-74
2022/04/07 06:48:59;;;;;;;5.93;1.30;;;7.30;99.90;;;;;;5156445;27;20283;-74
2022/04/07 06:51:25;;;;;;;9.57;1.80;;;7.30;99.90;;;;;;5156144;27;20349;-75
2022/04/07 06:53:51;;;;;;;8.30;1.57;;;7.30;99.90;;;;;;5138103;27;20748;-75
2022/04/07 06:56:16;;;;;;;7.47;1.77;;;7.20;99.90;;;;;;5155673;27;20047;-75
2022/04/07 06:58:42;;;;;;;8.73;1.47;;;7.30;99.90;;;;;;5121013;27;20039;-75
2022/04/07 07:01:08;;;;;;;9.40;1.50;;;7.30;99.90;;;;;;5156252;27;20483;-75
2022/04/07 07:03:35;;;;;;;7.50;1.60;;;7.30;99.90;;;;;;5155794;27;20126;-75
2022/04/07 07:06:00;;;;;;;7.53;1.20;;;7.30;99.90;;;;;;5137586;27;20287;-75
2022/04/07 07:08:26;;;;;;;7.10;1.37;;;7.40;99.90;;;;;;5155410;27;20038;-75
2022/04/07 07:10:53;;;;;;;9.90;1.90;;;7.40;99.90;;;;;;5137524;27;20045;-78
2022/04/07 07:13:20;;;;;;;8.40;1.87;;;7.30;99.90;;;;;;5155607;27;20371;-76
2022/04/07 07:15:47;;;;;;;8.83;1.67;;;7.40;99.90;;;;;;5155854;27;20827;-77
2022/04/07 07:18:12;;;;;;;7.33;1.67;;;7.40;99.90;;;;;;5155932;27;20284;-78
2022/04/07 07:20:38;;;;;;;8.23;1.77;;;7.50;99.90;;;;;;5103035;27;20385;-77
2022/04/07 07:23:05;;;;;;;9.80;1.57;;;7.50;99.90;;;;;;5137234;27;20046;-76
2022/04/07 07:25:31;;;;;;;7.33;1.50;;;7.50;99.90;;;;;;5155348;27;20367;-78
2022/04/07 07:27:59;;;;;;;9.60;2.27;;;7.50;99.90;;;;;;5137385;27;20279;-77
2022/04/07 07:30:25;;;;;;;8.43;1.90;;;7.50;99.90;;;;;;5136823;27;20307;-78
2022/04/07 07:32:51;;;;;;;12.07;2.43;;;7.50;99.90;;;;;;5155572;27;20353;-78
2022/04/07 07:35:18;;;;;;;11.33;1.90;;;7.50;99.90;;;;;;5155156;27;20053;-80
2022/04/07 07:37:55;;;;;;;11.63;2.53;;;7.60;99.90;;;;;;5155640;27;20276;-78
2022/04/07 07:40:23;;;;;;;8.73;1.73;;;7.60;99.90;;;;;;5155285;27;20057;-79
2022/04/07 07:42:49;;;;;;;9.90;1.80;;;8.20;99.90;;;;;;5155153;27;20300;-78
2022/04/07 07:45:18;;;;;;;8.77;2.00;;;8.40;99.90;;;;;;5155404;27;20280;-78
2022/04/07 07:47:44;;;;;;;9.30;1.70;;;9.10;99.90;;;;;;5155213;27;20280;-79
2022/04/07 07:50:10;;;;;;;7.00;1.50;;;9.70;99.90;;;;;;5155231;27;20743;-78
2022/04/07 07:52:36;;;;;;;8.40;1.30;;;11.20;99.90;;;;;;5154922;27;20283;-78
2022/04/07 07:55:02;;;;;;;6.83;1.80;;;12.10;99.90;;;;;;5154604;27;20474;-78
2022/04/07 07:57:28;;;;;;;7.80;1.73;;;12.20;99.90;;;;;;5154954;27;20050;-78
2022/04/07 07:59:54;;;;;;;10.63;1.70;;;11.90;99.90;;;;;;5155109;27;20280;-78
2022/04/07 08:02:20;;;;;;;7.87;1.60;;;11.70;99.90;;;;;;5154633;27;20295;-81
2022/04/07 08:04:46;;;;;;;7.20;1.90;;;11.40;99.90;;;;;;5155209;27;20042;-78
2022/04/07 08:07:12;;;;;;;8.80;1.33;;;11.20;99.90;;;;;;5136966;27;20049;-79
2022/04/07 08:09:37;;;;;;;5.87;1.40;;;11.10;99.90;;;;;;5154717;27;20272;-78
2022/04/07 08:12:04;;;;;;;7.43;1.37;;;11.00;99.90;;;;;;5155107;27;20481;-77
2022/04/07 08:14:30;;;;;;;6.90;1.30;;;10.90;99.90;;;;;;5154685;27;20122;-77
2022/04/07 08:16:56;;;;;;;8.03;1.73;;;10.80;99.90;;;;;;5154861;27;20276;-77
2022/04/07 08:19:22;;;;;;;11.57;1.87;;;10.80;99.90;;;;;;5154678;27;20336;-77
2022/04/07 08:21:48;;;;;;;9.43;1.30;;;10.80;99.90;;;;;;5154859;27;20295;-78
2022/04/07 08:24:16;;;;;;;9.87;1.87;;;10.80;99.90;;;;;;5136411;27;20057;-78
2022/04/07 08:26:42;;;;;;;9.00;1.87;;;10.80;99.90;;;;;;5154846;27;20070;-77
2022/04/07 08:29:09;;;;;;;8.30;1.43;;;10.90;99.90;;;;;;5154977;27;20316;-79
2022/04/07 08:31:35;;;;;;;10.17;1.87;;;10.90;99.90;;;;;;5136720;27;20282;-82
2022/04/07 08:34:01;;;;;;;6.87;1.93;;;10.80;99.90;;;;;;5157559;27;20363;-84
2022/04/07 08:36:27;;;;;;;6.50;1.70;;;10.80;99.90;;;;;;5136314;27;20096;-80
2022/04/07 08:38:52;;;;;;;8.50;2.00;;;10.80;99.90;;;;;;5154872;27;20514;-82
2022/04/07 08:41:18;;;;;;;5.77;1.60;;;10.70;99.90;;;;;;5154542;27;20130;-83
2022/04/07 08:43:45;;;;;;;8.13;1.70;;;10.70;99.90;;;;;;5154397;27;20047;-83
2022/04/07 08:46:12;;;;;;;7.93;2.13;;;10.70;99.90;;;;;;5154580;27;20302;-85
2022/04/07 08:48:42;;;;;;;9.77;1.57;;;10.60;99.90;;;;;;5154264;27;20280;-82
2022/04/07 08:51:09;;;;;;;14.10;2.20;;;10.50;99.90;;;;;;5154459;27;20322;-83
2022/04/07 08:53:36;;;;;;;11.50;1.77;;;10.40;99.90;;;;;;5154241;27;20673;-82
2022/04/07 08:56:04;;;;;;;13.13;2.23;;;10.40;99.90;;;;;;5136195;27;20394;-77
2022/04/07 08:58:31;;;;;;;10.40;1.93;;;10.40;99.90;;;;;;5153821;27;20824;-78
2022/04/07 09:00:56;;;;;;;14.37;2.87;;;10.50;99.90;;;;;;5154373;27;20280;-80
2022/04/07 09:03:23;;;;;;;13.43;1.97;;;10.50;99.90;;;;;;5136174;27;20419;-79
2022/04/07 09:05:59;;;;;;;11.00;3.00;;;10.60;99.90;;;;;;5137061;27;20107;-81
2022/04/07 09:08:33;;;;;;;12.17;2.47;;;10.70;99.90;;;;;;5158547;27;20276;-81
2022/04/07 09:11:00;;;;;;;9.50;2.10;;;10.70;99.90;;;;;;5158322;27;20279;-83
2022/04/07 09:13:35;;;;;;;17.80;2.77;;;10.70;99.90;;;;;;5158199;27;20627;-79
2022/04/07 09:16:03;;;;;;;15.10;2.70;;;10.60;99.90;;;;;;5159425;27;20311;-81
2022/04/07 09:18:36;;;;;;;13.27;2.63;;;10.60;99.90;;;;;;5157919;27;20284;-82
2022/04/07 09:21:03;;;;;;;13.80;2.63;;;10.50;99.90;;;;;;5158340;27;20272;-82
2022/04/07 09:23:35;;;;;;;15.27;2.90;;;10.50;99.90;;;;;;5139194;27;20458;-80
2022/04/07 09:26:01;;;;;;;12.97;2.33;;;10.60;99.90;;;;;;5140380;27;20328;-83
2022/04/07 09:28:32;;;;;;;11.50;2.30;;;10.70;99.90;;;;;;5139251;27;20349;-85
2022/04/07 09:30:59;;;;;;;10.63;2.07;;;10.80;99.90;;;;;;5157904;27;20052;-76
2022/04/07 09:33:27;;;;;;;12.27;3.30;;;10.80;99.90;;;;;;5139258;27;20352;-77
2022/04/07 09:36:19;;;;;;;17.50;3.17;;;10.70;99.90;;;;;;5158454;27;20295;-77
2022/04/07 09:38:52;;;;;;;13.57;2.53;;;10.60;99.90;;;;;;5157470;27;20359;-77
2022/04/07 09:41:19;;;;;;;13.10;3.33;;;10.50;99.90;;;;;;5139605;27;20303;-78
2022/04/07 09:43:48;;;;;;;16.80;3.53;;;10.40;99.90;;;;;;5157323;27;20755;-78
2022/04/07 09:46:16;;;;;;;15.83;2.40;;;10.40;99.90;;;;;;5158593;27;20295;-76
2022/04/07 09:49:04;;;;;;;12.50;2.67;;;10.40;99.90;;;;;;5157182;27;20283;-76
2022/04/07 09:51:48;;;;;;;15.97;3.27;;;10.40;99.90;;;;;;5161339;27;20308;-77
2022/04/07 09:54:16;;;;;;;11.83;2.60;;;10.50;99.90;;;;;;5171022;27;20279;-76
2022/04/07 09:56:46;;;;;;;16.50;3.33;;;10.60;99.90;;;;;;5142346;27;20786;-76
2022/04/07 09:59:16;;;;;;;12.60;2.20;;;10.60;99.90;;;;;;5152740;27;20307;-82
2022/04/07 10:01:43;;;;;;;11.87;2.20;;;10.60;99.90;;;;;;5153293;27;20295;-75
2022/04/07 10:04:09;;;;;;;12.60;2.60;;;10.50;99.90;;;;;;5172283;27;20347;-74
2022/04/07 10:06:38;;;;;;;13.57;3.03;;;10.40;99.90;;;;;;5145899;27;20296;-75
2022/04/07 10:09:09;;;;;;;16.27;2.90;;;10.30;99.90;;;;;;5169970;27;20279;-78
2022/04/07 10:11:36;;;;;;;14.17;2.90;;;10.10;99.90;;;;;;5152113;27;20299;-77
2022/04/07 10:14:02;;;;;;;10.77;2.67;;;10.00;99.90;;;;;;5171591;27;20280;-77
2022/04/07 10:16:28;;;;;;;16.87;3.73;;;10.00;99.90;;;;;;5170522;27;20291;-80
2022/04/07 10:19:05;;;;;;;13.00;2.57;;;10.00;99.90;;;;;;5159620;27;20651;-77
2022/04/07 10:22:01;;;;;;;12.03;2.90;;;10.00;99.90;;;;;;5155755;27;20300;-78
2022/04/07 10:24:48;;;;;;;14.00;2.50;;;10.00;99.90;;;;;;5156773;27;20771;-77
2022/04/07 10:27:18;;;;;;;12.53;2.40;;;10.00;99.90;;;;;;5157075;27;20129;-80
2022/04/07 10:30:10;;;;;;;15.67;3.23;;;10.00;99.90;;;;;;5137612;27;20356;-82
2022/04/07 10:32:52;;;;;;;13.40;3.00;;;10.00;99.90;;;;;;5144779;27;20343;-82
2022/04/07 10:35:30;;;;;;;15.50;2.70;;;10.10;99.90;;;;;;5177849;27;20731;-81
2022/04/07 10:38:00;;;;;;;15.10;3.07;;;10.10;99.90;;;;;;5177103;27;20303;-82
2022/04/07 10:40:33;;;;;;;18.97;3.07;;;10.10;99.90;;;;;;5179246;27;20294;-81
2022/04/07 10:43:17;;;;;;;14.30;2.60;;;10.00;99.90;;;;;;5136016;27;20307;-82
2022/04/07 10:45:44;;;;;;;17.63;3.63;;;10.00;99.90;;;;;;5162665;27;20284;-78
2022/04/07 10:48:27;;;;;;;16.03;3.37;;;10.00;99.90;;;;;;5171686;27;20279;-78
2022/04/07 10:51:10;;;;;;;14.97;3.13;;;10.10;99.90;;;;;;5170265;27;20291;-79
2022/04/07 10:53:36;;;;;;;14.37;3.10;;;10.10;99.90;;;;;;5170916;27;20311;-76
2022/04/07 10:56:21;;;;;;;14.13;3.07;;;10.00;99.90;;;;;;5170356;27;20283;-77
2022/04/07 10:58:55;;;;;;;18.65;3.83;;;10.00;99.90;;;;;;5170318;27;20286;-75
2022/04/07 11:01:32;;;;;;;16.90;3.33;;;10.00;99.90;;;;;;5174258;27;20046;-82
2022/04/07 11:04:20;;;;;;;13.97;3.17;;;10.10;99.90;;;;;;5158001;27;20287;-78
2022/04/07 11:07:04;;;;;;;19.37;3.93;;;10.30;99.90;;;;;;5176575;27;20287;-80
2022/04/07 11:09:55;;;;;;;13.83;2.93;;;10.40;99.90;;;;;;5176905;27;20298;-80
2022/04/07 11:12:34;;;;;;;11.87;2.97;;;10.50;99.90;;;;;;5176697;27;20287;-79
2022/04/07 11:15:02;;;;;;;14.37;3.03;;;10.50;99.90;;;;;;5176220;27;20350;-78
2022/04/07 11:17:36;;;;;;;14.30;2.87;;;10.40;99.90;;;;;;5158319;27;20334;-79
2022/04/07 11:20:18;;;;;;;17.17;4.03;;;10.30;99.90;;;;;;5157689;27;20419;-80
2022/04/07 11:22:51;;;;;;;13.77;3.20;;;10.30;99.90;;;;;;5176250;27;20336;-80
2022/04/07 11:25:20;;;;;;;16.13;3.53;;;10.40;99.90;;;;;;5176200;27;20291;-83
2022/04/07 11:28:13;;;;;;;13.10;3.43;;;10.50;99.90;;;;;;5175590;27;20734;-80
2022/04/07 11:30:46;;;;;;;17.50;3.77;;;10.60;99.90;;;;;;5147063;27;20619;-82
2022/04/07 11:33:27;;;;;;;16.77;3.00;;;10.50;99.90;;;;;;5170669;27;20434;-83
2022/04/07 11:35:58;;;;;;;13.97;3.20;;;10.60;99.90;;;;;;5164339;27;20284;-83
2022/04/07 11:38:29;;;;;;;16.70;2.83;;;10.60;99.90;;;;;;5167786;27;20294;-82
2022/04/07 11:41:14;;;;;;;20.20;3.37;;;10.70;99.90;;;;;;5168987;27;20284;-84
2022/04/07 11:43:43;;;;;;;11.20;3.13;;;10.80;99.90;;;;;;5169901;27;20311;-82
2022/04/07 11:46:10;;;;;;;11.87;2.70;;;10.80;99.90;;;;;;5170220;27;20050;-82
2022/04/07 11:48:38;;;;;;;10.83;2.40;;;10.80;99.90;;;;;;5170246;27;20284;-84
2022/04/07 11:51:14;;;;;;;17.17;3.70;;;10.90;99.90;;;;;;5167568;27;20778;-81
2022/04/07 11:53:52;;;;;;;13.97;2.80;;;11.00;99.90;;;;;;5169769;27;20272;-82
2022/04/07 11:56:34;;;;;;;15.53;2.67;;;11.00;99.90;;;;;;5150824;27;20271;-80
2022/04/07 11:59:05;;;;;;;11.43;2.30;;;11.10;99.90;;;;;;5170150;27;20868;-80
2022/04/07 12:01:31;;;;;;;13.40;3.07;;;11.10;99.90;;;;;;5175775;27;20386;-84
2022/04/07 12:04:00;;;;;;;12.60;3.20;;;11.20;99.90;;;;;;5169453;27;20280;-85
2022/04/07 12:06:31;;;;;;;12.57;2.80;;;11.30;99.90;;;;;;5175712;27;20279;-83
2022/04/07 12:08:58;;;;;;;17.77;3.03;;;11.20;99.90;;;;;;5156186;27;20362;-82
2022/04/07 12:11:26;;;;;;;15.03;3.20;;;11.00;99.90;;;;;;5157348;27;20343;-77
2022/04/07 12:13:55;;;;;;;16.40;3.10;;;10.80;99.90;;;;;;5175551;27;20272;-78
2022/04/07 12:16:22;;;;;;;10.83;2.20;;;10.50;99.90;;;;;;5175854;27;20415;-77
2022/04/07 12:19:00;;;;;;;9.93;2.40;;;10.00;99.90;;;;;;5175486;27;20282;-78
2022/04/07 12:21:27;;;;;;;12.10;2.37;;;9.40;99.90;;;;;;5175691;27;20812;-81
2022/04/07 12:24:11;;;;;;;14.60;2.43;;;9.30;99.90;;;;;;5175515;27;20348;-82
2022/04/07 12:26:48;;;;;;;9.10;2.60;;;9.30;99.90;;;;;;5156829;27;20286;-82
2022/04/07 12:29:34;;;;;;;9.63;2.40;;;9.40;99.90;;;;;;5175705;27;20271;-81
2022/04/07 12:32:09;;;;;;;14.10;3.33;;;9.50;99.90;;;;;;5175345;27;20612;-79
2022/04/07 12:34:50;;;;;;;10.40;2.15;;;9.60;99.90;;;;;;5175602;27;20046;-77
2022/04/07 12:37:39;;;;;;;14.13;2.50;;;9.80;99.90;;;;;;5175622;27;20049;-77
2022/04/07 12:40:18;;;;;;;8.80;1.77;;;9.80;99.90;;;;;;5176453;27;20273;-82
2022/04/07 12:42:52;;;;;;;8.87;1.87;;;9.60;99.90;;;;;;5179509;27;20596;-79
2022/04/07 12:45:18;;;;;;;8.07;1.70;;;9.30;99.90;;;;;;5161670;27;20283;-75
2022/04/07 12:48:01;;;;;;;7.03;1.73;;;9.00;99.90;;;;;;5161205;27;20302;-75
2022/04/07 12:50:27;;;;;;;10.23;2.20;;;8.80;99.90;;;;;;5180557;27;20431;-76
2022/04/07 12:52:53;;;;;;;13.50;2.30;;;8.90;99.90;;;;;;5179331;27;20350;-75
2022/04/07 12:55:19;;;;;;;10.40;2.30;;;9.10;99.90;;;;;;5179536;27;20362;-76